Time;durP1;ratioP1;P1;durP2;ratioP2;P2;SDS_P1;SDS_P2;PMS_P1;PMS_P2;Temp;Humidity;BMP_temperature;BMP_pressure;BME280_temperature;BME280_humidity;BME280_pressure;Samples;Min_cycle;Max_cycle;Signal;HPM_P1;HPM_P2
2022/01/06 00:01:13;;;;;;;1.80;0.80;;;5.10;99.90;;;;;;5042346;28;20150;-73
2022/01/06 00:03:43;;;;;;;3.58;0.88;;;5.00;99.90;;;;;;5041359;28;20128;-73
2022/01/06 00:06:12;;;;;;;1.73;0.60;;;5.20;99.90;;;;;;5039653;28;20049;-74
2022/01/06 00:08:42;;;;;;;2.50;1.10;;;5.10;99.90;;;;;;5042847;28;20057;-73
2022/01/06 00:11:13;;;;;;;5.20;1.00;;;5.20;99.90;;;;;;5044898;28;20103;-73
2022/01/06 00:13:51;;;;;;;5.85;1.40;;;5.20;99.90;;;;;;5039390;28;20065;-74
2022/01/06 00:16:32;;;;;;;2.78;0.90;;;5.40;99.90;;;;;;5042239;28;20060;-74
2022/01/06 00:24:36;;;;;;;2.78;0.70;;;5.60;99.90;;;;;;5041118;28;20041;-74
2022/01/06 00:27:05;;;;;;;1.88;0.80;;;5.60;99.90;;;;;;5060165;28;20111;-73
2022/01/06 00:29:33;;;;;;;4.38;1.05;;;5.60;99.90;;;;;;5040400;28;20123;-74
2022/01/06 00:32:02;;;;;;;4.57;1.13;;;5.70;99.90;;;;;;5040088;28;20416;-74
2022/01/06 00:34:31;;;;;;;2.67;0.73;;;5.60;99.90;;;;;;5038791;28;20060;-73
2022/01/06 00:37:01;;;;;;;6.25;1.40;;;5.60;99.90;;;;;;5044009;28;20041;-73
2022/01/06 00:39:30;;;;;;;6.28;1.02;;;5.50;99.90;;;;;;5041987;28;20054;-74
2022/01/06 00:42:00;;;;;;;2.90;1.30;;;5.60;99.90;;;;;;5045177;28;20030;-74
2022/01/06 00:44:29;;;;;;;7.13;0.98;;;5.60;99.90;;;;;;5046690;28;20509;-73
2022/01/06 00:46:57;;;;;;;5.77;1.10;;;5.40;99.90;;;;;;5038926;28;20053;-74
2022/01/06 00:49:26;;;;;;;4.35;0.88;;;5.40;99.90;;;;;;5054282;28;20044;-74
2022/01/06 00:51:54;;;;;;;3.55;1.42;;;5.50;99.90;;;;;;5043489;28;20037;-74
2022/01/06 00:54:23;;;;;;;5.55;0.95;;;5.60;99.90;;;;;;5041268;28;20042;-74
2022/01/06 00:56:51;;;;;;;3.90;1.42;;;5.60;99.90;;;;;;5043551;28;20412;-73
2022/01/06 00:59:21;;;;;;;2.80;0.90;;;5.40;99.90;;;;;;5041244;28;20467;-74
2022/01/06 01:01:50;;;;;;;2.50;1.13;;;5.30;99.90;;;;;;5041743;28;20053;-74
2022/01/06 01:04:19;;;;;;;7.10;1.52;;;5.40;99.90;;;;;;5038622;28;20503;-74
2022/01/06 01:06:48;;;;;;;4.90;1.60;;;5.40;99.90;;;;;;5037519;28;20042;-73
2022/01/06 01:09:17;;;;;;;2.20;0.85;;;5.40;99.90;;;;;;5043073;28;20136;-74
2022/01/06 01:11:45;;;;;;;6.70;1.70;;;5.50;99.90;;;;;;5034455;28;20041;-74
2022/01/06 01:14:22;;;;;;;3.28;0.93;;;5.60;99.90;;;;;;5043792;28;20461;-73
2022/01/06 01:16:56;;;;;;;3.95;1.25;;;5.60;99.90;;;;;;5038730;28;20069;-72
2022/01/06 01:19:25;;;;;;;4.70;1.65;;;5.70;99.90;;;;;;5043966;28;20045;-73
2022/01/06 01:21:55;;;;;;;6.07;1.38;;;5.60;99.90;;;;;;5040556;28;20045;-74
2022/01/06 01:24:24;;;;;;;2.40;1.50;;;5.60;99.90;;;;;;5042717;28;20051;-74
2022/01/06 01:26:53;;;;;;;3.15;0.88;;;5.60;99.90;;;;;;5030559;28;20045;-74
2022/01/06 01:29:22;;;;;;;2.55;0.70;;;5.50;99.90;;;;;;5040918;28;20041;-73
2022/01/06 01:31:54;;;;;;;5.10;1.35;;;5.30;99.90;;;;;;5036920;28;20053;-74
2022/01/06 01:34:26;;;;;;;2.83;0.93;;;5.30;99.90;;;;;;5042177;28;20045;-73
2022/01/06 01:36:56;;;;;;;2.43;0.97;;;5.40;99.90;;;;;;5041797;28;20128;-73
2022/01/06 01:39:24;;;;;;;5.32;1.33;;;5.30;99.90;;;;;;5039905;28;20076;-73
2022/01/06 01:41:53;;;;;;;2.53;1.00;;;5.40;99.90;;;;;;5041393;28;20120;-74
2022/01/06 01:44:21;;;;;;;2.78;1.42;;;5.50;99.90;;;;;;5040929;28;20056;-73
2022/01/06 01:47:00;;;;;;;4.63;1.20;;;5.50;99.90;;;;;;5025939;28;20056;-74
2022/01/06 01:49:43;;;;;;;4.10;1.53;;;5.30;99.90;;;;;;5042666;28;20072;-72
2022/01/06 01:52:16;;;;;;;6.05;1.30;;;5.20;99.90;;;;;;5029248;28;20075;-74
2022/01/06 01:54:44;;;;;;;4.35;1.60;;;5.40;99.90;;;;;;5044586;28;20029;-72
2022/01/06 01:57:13;;;;;;;8.18;1.80;;;5.40;99.90;;;;;;5038988;28;20075;-74
2022/01/06 01:59:42;;;;;;;3.67;1.13;;;5.30;99.90;;;;;;5021929;28;20407;-74
2022/01/06 02:02:12;;;;;;;3.10;1.03;;;5.30;99.90;;;;;;5045103;28;20056;-75
2022/01/06 02:04:41;;;;;;;7.75;1.23;;;5.30;99.90;;;;;;5049951;28;20403;-74
2022/01/06 02:07:10;;;;;;;3.20;1.35;;;5.40;99.90;;;;;;5043716;28;20059;-74
2022/01/06 02:09:38;;;;;;;5.10;1.30;;;5.50;99.90;;;;;;5061038;28;20064;-74
2022/01/06 02:12:10;;;;;;;5.65;1.23;;;5.30;99.90;;;;;;5043621;28;20071;-74
2022/01/06 02:14:39;;;;;;;3.80;0.83;;;5.30;99.90;;;;;;5046857;28;20479;-72
2022/01/06 02:17:07;;;;;;;6.13;1.30;;;5.30;99.90;;;;;;5039061;28;20055;-74
2022/01/06 02:19:37;;;;;;;7.45;1.40;;;5.30;99.90;;;;;;5047025;28;20094;-74
2022/01/06 02:22:08;;;;;;;5.07;1.30;;;5.30;99.90;;;;;;5042493;28;20447;-74
2022/01/06 02:24:37;;;;;;;2.35;1.13;;;5.40;99.90;;;;;;5047292;28;20083;-74
2022/01/06 02:27:06;;;;;;;2.47;0.83;;;5.40;99.90;;;;;;5040315;28;20165;-72
2022/01/06 02:29:34;;;;;;;3.50;1.15;;;5.40;99.90;;;;;;5047557;28;20095;-72
2022/01/06 02:32:08;;;;;;;6.35;1.58;;;5.40;99.90;;;;;;5025992;28;20695;-74
2022/01/06 02:34:37;;;;;;;4.20;1.23;;;5.40;99.90;;;;;;5049389;28;20045;-72
2022/01/06 02:37:06;;;;;;;4.38;1.38;;;5.20;99.90;;;;;;5046045;28;20048;-72
2022/01/06 02:39:36;;;;;;;3.80;1.20;;;5.20;99.90;;;;;;5043175;28;20146;-72
2022/01/06 02:42:06;;;;;;;4.35;1.40;;;5.20;99.90;;;;;;5043333;28;20072;-72
2022/01/06 02:44:37;;;;;;;5.30;1.38;;;5.10;99.90;;;;;;5055444;28;20510;-72
2022/01/06 02:47:07;;;;;;;3.88;1.67;;;5.20;99.90;;;;;;5046324;28;20053;-71
2022/01/06 02:49:35;;;;;;;5.20;1.75;;;5.10;99.90;;;;;;5042212;28;20080;-74
2022/01/06 02:52:05;;;;;;;9.13;1.33;;;5.30;99.90;;;;;;5046304;28;20053;-74
2022/01/06 02:54:33;;;;;;;3.35;1.25;;;5.30;99.90;;;;;;5043669;28;20055;-71
2022/01/06 02:57:09;;;;;;;4.30;1.40;;;5.30;99.90;;;;;;5048507;28;20052;-71
2022/01/06 02:59:38;;;;;;;7.70;2.22;;;5.40;99.90;;;;;;5043332;28;20045;-74
2022/01/06 03:02:09;;;;;;;3.47;1.23;;;5.30;99.90;;;;;;5043854;28;20056;-75
2022/01/06 03:04:38;;;;;;;4.77;2.57;;;5.20;99.90;;;;;;5042819;28;20049;-72
2022/01/06 03:07:08;;;;;;;5.75;1.55;;;5.20;99.90;;;;;;5047500;28;20056;-71
2022/01/06 03:09:39;;;;;;;2.33;0.98;;;5.00;99.90;;;;;;5057620;28;20758;-71
2022/01/06 03:12:21;;;;;;;2.50;1.30;;;5.10;99.90;;;;;;5058931;28;20067;-72
2022/01/06 03:14:53;;;;;;;3.25;1.30;;;5.00;99.90;;;;;;5040869;28;20045;-74
2022/01/06 03:17:22;;;;;;;4.20;1.50;;;5.00;99.90;;;;;;5042054;28;20060;-74
2022/01/06 03:19:50;;;;;;;4.63;1.20;;;5.10;99.90;;;;;;5045604;28;20055;-72
2022/01/06 03:22:19;;;;;;;4.55;1.02;;;4.80;99.90;;;;;;5044999;28;20124;-74
2022/01/06 03:24:48;;;;;;;3.22;1.50;;;4.80;99.90;;;;;;5046815;28;20055;-74
2022/01/06 03:27:18;;;;;;;3.47;0.93;;;4.70;99.90;;;;;;5042739;28;20040;-72
2022/01/06 03:29:49;;;;;;;3.57;1.10;;;4.90;99.90;;;;;;5047057;28;20405;-72
2022/01/06 03:32:19;;;;;;;2.78;1.08;;;4.90;99.90;;;;;;5036799;28;20061;-72
2022/01/06 03:34:49;;;;;;;4.93;1.45;;;5.00;99.90;;;;;;5046065;28;20045;-72
2022/01/06 03:37:17;;;;;;;3.78;1.13;;;5.00;99.90;;;;;;5055713;28;20498;-72
2022/01/06 03:39:45;;;;;;;8.75;1.42;;;5.00;99.90;;;;;;5045387;28;20041;-72
2022/01/06 03:42:14;;;;;;;4.07;1.20;;;5.00;99.90;;;;;;5043874;28;20037;-72
2022/01/06 03:44:43;;;;;;;5.55;1.00;;;5.00;99.90;;;;;;5045889;28;20102;-72
2022/01/06 03:47:12;;;;;;;3.17;1.20;;;4.80;99.90;;;;;;5036994;28;20096;-72
2022/01/06 03:50:09;;;;;;;13.02;1.50;;;4.90;99.90;;;;;;5045227;28;20056;-72
2022/01/06 03:52:38;;;;;;;7.43;1.10;;;4.70;99.90;;;;;;5042632;28;20551;-72
2022/01/06 03:55:10;;;;;;;3.07;1.10;;;4.70;99.90;;;;;;5046323;28;20052;-72
2022/01/06 03:57:38;;;;;;;4.22;1.90;;;4.60;99.90;;;;;;5040765;28;20472;-72
2022/01/06 04:00:13;;;;;;;4.70;1.90;;;4.60;99.90;;;;;;5040338;28;20045;-72
2022/01/06 04:02:42;;;;;;;5.28;1.05;;;4.70;99.90;;;;;;5045247;28;20052;-72
2022/01/06 04:05:12;;;;;;;5.47;1.33;;;4.70;99.90;;;;;;5041588;28;20045;-72
2022/01/06 04:07:42;;;;;;;6.70;1.37;;;4.70;99.90;;;;;;5047399;28;20091;-72
2022/01/06 04:10:12;;;;;;;3.20;0.95;;;4.80;99.90;;;;;;5040344;28;20578;-72
2022/01/06 04:12:41;;;;;;;3.00;1.08;;;4.80;99.90;;;;;;5040702;28;20051;-72
2022/01/06 04:15:13;;;;;;;2.95;1.05;;;4.80;99.90;;;;;;5036134;28;20045;-73
2022/01/06 04:17:48;;;;;;;7.72;1.58;;;4.90;99.90;;;;;;5046927;28;20076;-72
2022/01/06 04:20:18;;;;;;;8.03;1.27;;;5.00;99.90;;;;;;5042510;28;20060;-72
2022/01/06 04:22:47;;;;;;;1.67;0.93;;;5.10;99.90;;;;;;5030036;28;20060;-72
2022/01/06 04:25:16;;;;;;;4.88;1.10;;;5.00;99.90;;;;;;5039879;28;20077;-72
2022/01/06 04:30:39;;;;;;;3.85;1.42;;;5.10;99.90;;;;;;5033235;28;20504;-72
2022/01/06 04:33:08;;;;;;;3.40;1.37;;;5.20;99.90;;;;;;5048045;28;20594;-72
2022/01/06 04:35:36;;;;;;;3.28;1.38;;;5.00;99.90;;;;;;5042288;28;20044;-72
2022/01/06 04:38:04;;;;;;;2.72;0.77;;;5.10;99.90;;;;;;5046016;28;20045;-72
2022/01/06 04:40:32;;;;;;;4.07;1.33;;;5.00;99.90;;;;;;5046606;28;20138;-72
2022/01/06 04:43:01;;;;;;;4.47;1.80;;;4.90;99.90;;;;;;5047832;28;20067;-72
2022/01/06 04:45:29;;;;;;;5.17;1.43;;;4.90;99.90;;;;;;5039919;28;20041;-72
2022/01/06 04:47:59;;;;;;;2.78;1.00;;;4.90;99.90;;;;;;5039770;28;20052;-72
2022/01/06 04:50:52;;;;;;;2.72;1.17;;;4.80;99.90;;;;;;5029145;28;20562;-72
2022/01/06 04:53:20;;;;;;;2.10;0.90;;;4.80;99.90;;;;;;5043138;28;20053;-72
2022/01/06 04:55:51;;;;;;;2.47;0.85;;;4.70;99.90;;;;;;5047045;28;20033;-72
2022/01/06 04:58:19;;;;;;;1.93;0.80;;;4.80;99.90;;;;;;5042174;28;20049;-72
2022/01/06 05:00:48;;;;;;;6.10;0.88;;;4.80;99.90;;;;;;5044561;28;20056;-72
2022/01/06 05:03:19;;;;;;;4.10;1.75;;;4.70;99.90;;;;;;5045692;28;20136;-72
2022/01/06 05:05:47;;;;;;;3.35;0.93;;;4.80;99.90;;;;;;5048702;28;20072;-72
2022/01/06 05:08:15;;;;;;;2.50;0.98;;;4.80;99.90;;;;;;5041765;28;20051;-72
2022/01/06 05:10:43;;;;;;;2.77;1.23;;;4.90;99.90;;;;;;5046365;28;20295;-72
2022/01/06 05:13:12;;;;;;;5.72;1.88;;;5.00;99.90;;;;;;5038979;28;20586;-72
2022/01/06 05:15:41;;;;;;;3.85;0.90;;;4.90;99.90;;;;;;5041898;28;20049;-72
2022/01/06 05:18:10;;;;;;;3.00;1.20;;;4.90;99.90;;;;;;5040654;28;20041;-72
2022/01/06 05:20:44;;;;;;;2.95;1.00;;;4.90;99.90;;;;;;5043922;28;20049;-72
2022/01/06 05:23:14;;;;;;;6.10;1.07;;;4.90;99.90;;;;;;5047426;28;20134;-72
2022/01/06 05:25:45;;;;;;;3.38;1.17;;;4.90;99.90;;;;;;5045056;28;20094;-72
2022/01/06 05:28:14;;;;;;;3.13;1.05;;;4.90;99.90;;;;;;5046379;28;20037;-72
2022/01/06 05:33:49;;;;;;;1.70;0.60;;;4.80;99.90;;;;;;5048138;28;20063;-72
2022/01/06 05:36:19;;;;;;;2.23;0.70;;;4.90;99.90;;;;;;5045679;28;20091;-72
2022/01/06 05:38:47;;;;;;;8.10;0.70;;;4.80;99.90;;;;;;5046954;28;20041;-72
2022/01/06 05:41:15;;;;;;;2.00;0.60;;;4.70;99.90;;;;;;5045086;28;20087;-72
2022/01/06 05:43:43;;;;;;;1.42;0.70;;;4.70;99.90;;;;;;5047079;28;20033;-72
2022/01/06 05:46:15;;;;;;;2.22;0.63;;;4.60;99.90;;;;;;5041304;28;20488;-72
2022/01/06 05:48:43;;;;;;;1.93;0.87;;;4.50;99.90;;;;;;5033081;28;20041;-73
2022/01/06 05:51:15;;;;;;;1.73;0.40;;;4.40;99.90;;;;;;5040865;28;20064;-73
2022/01/06 05:59:54;;;;;;;1.98;0.30;;;4.40;99.90;;;;;;5045197;28;20040;-72
2022/01/06 06:02:23;;;;;;;5.90;0.50;;;4.40;99.90;;;;;;5037025;28;20071;-72
2022/01/06 06:04:52;;;;;;;4.18;0.35;;;4.50;99.90;;;;;;5031549;28;20444;-72
2022/01/06 06:07:21;;;;;;;5.97;0.20;;;4.50;99.90;;;;;;5026853;28;20049;-72
2022/01/06 06:09:51;;;;;;;1.95;0.43;;;4.50;99.90;;;;;;5030334;28;20073;-72
2022/01/06 06:12:20;;;;;;;9.82;0.70;;;4.50;99.90;;;;;;5009137;28;20038;-72
2022/01/06 06:14:49;;;;;;;1.30;0.20;;;4.40;99.90;;;;;;5030152;28;20539;-72
2022/01/06 06:17:17;;;;;;;1.77;0.50;;;4.50;99.90;;;;;;5021875;28;20064;-73
2022/01/06 06:19:46;;;;;;;2.15;0.60;;;4.50;99.90;;;;;;5011191;28;20080;-73
2022/01/06 06:22:14;;;;;;;2.20;0.88;;;4.20;99.90;;;;;;5026587;28;20041;-73
2022/01/06 06:24:44;;;;;;;2.95;0.80;;;4.30;99.90;;;;;;5027585;28;20069;-73
2022/01/06 06:27:14;;;;;;;1.63;0.30;;;4.30;99.90;;;;;;5028255;28;20092;-72
2022/01/06 06:29:43;;;;;;;2.22;0.77;;;4.40;99.90;;;;;;5026267;28;20124;-73
2022/01/06 06:32:12;;;;;;;2.55;0.80;;;4.30;99.90;;;;;;5021475;28;20049;-73
2022/01/06 06:34:40;;;;;;;7.45;1.13;;;4.40;99.90;;;;;;5027582;28;20052;-73
2022/01/06 06:37:09;;;;;;;9.95;1.40;;;4.40;99.90;;;;;;5030116;28;20046;-72
2022/01/06 06:39:37;;;;;;;8.03;1.27;;;4.40;99.90;;;;;;5026004;28;20102;-72
2022/01/06 06:42:05;;;;;;;6.10;1.60;;;4.30;99.90;;;;;;5028088;28;20045;-73
2022/01/06 06:44:35;;;;;;;6.20;1.58;;;4.30;99.90;;;;;;5020070;28;20124;-72
2022/01/06 06:47:04;;;;;;;2.92;1.77;;;4.40;99.90;;;;;;5025874;28;20049;-73
2022/01/06 06:49:32;;;;;;;5.13;1.10;;;4.50;99.90;;;;;;5024073;28;20046;-74
2022/01/06 06:52:00;;;;;;;4.00;1.10;;;4.50;99.90;;;;;;5012556;28;20049;-72
2022/01/06 06:54:29;;;;;;;6.05;1.00;;;4.60;99.90;;;;;;5005462;28;20496;-73
2022/01/06 06:59:51;;;;;;;4.78;2.25;;;4.80;99.90;;;;;;5032898;28;20463;-72
2022/01/06 07:02:20;;;;;;;3.40;0.95;;;4.80;99.90;;;;;;5037585;28;20095;-72
2022/01/06 07:04:49;;;;;;;5.17;1.60;;;4.80;99.90;;;;;;5042414;28;20051;-72
2022/01/06 07:07:18;;;;;;;6.32;1.35;;;4.80;99.90;;;;;;5041237;28;20052;-72
2022/01/06 07:09:47;;;;;;;4.93;1.67;;;4.70;99.90;;;;;;5049152;28;20037;-72
2022/01/06 07:12:15;;;;;;;8.93;1.52;;;4.90;99.90;;;;;;5043683;28;20115;-73
2022/01/06 07:14:44;;;;;;;3.78;1.20;;;4.90;99.90;;;;;;5051246;28;20049;-73
2022/01/06 07:17:13;;;;;;;5.73;1.40;;;5.00;99.90;;;;;;5038199;28;20483;-73
2022/01/06 07:19:41;;;;;;;8.65;2.38;;;5.10;99.90;;;;;;5047714;28;20041;-73
2022/01/06 07:22:10;;;;;;;6.25;1.40;;;5.00;99.90;;;;;;5043171;28;20494;-71
2022/01/06 07:24:39;;;;;;;3.20;1.05;;;4.70;99.90;;;;;;5049398;28;20388;-71
2022/01/06 07:27:08;;;;;;;4.18;1.30;;;4.70;99.90;;;;;;5041058;28;20045;-72
2022/01/06 07:29:36;;;;;;;8.20;1.20;;;4.70;99.90;;;;;;5043793;28;20546;-72
2022/01/06 07:32:06;;;;;;;4.43;1.00;;;4.70;99.90;;;;;;5040086;28;20059;-72
2022/01/06 07:34:36;;;;;;;4.40;1.60;;;4.80;99.90;;;;;;5043261;28;20071;-73
2022/01/06 07:37:05;;;;;;;5.75;1.73;;;4.70;99.90;;;;;;5045394;28;20080;-72
2022/01/06 07:39:33;;;;;;;2.78;0.90;;;4.80;99.90;;;;;;5044352;28;20040;-72
2022/01/06 07:42:01;;;;;;;11.80;1.30;;;4.70;99.90;;;;;;5048440;28;20476;-72
2022/01/06 07:44:29;;;;;;;4.30;1.08;;;4.60;99.90;;;;;;5044832;28;20033;-72
2022/01/06 07:46:59;;;;;;;2.38;1.00;;;4.60;99.90;;;;;;5040839;28;20060;-72
2022/01/06 07:49:27;;;;;;;2.92;1.63;;;4.70;99.90;;;;;;5039882;28;20162;-77
2022/01/06 07:51:59;;;;;;;5.18;1.40;;;4.70;99.90;;;;;;5051829;28;20045;-70
2022/01/06 07:54:28;;;;;;;3.33;1.03;;;4.60;99.90;;;;;;5054149;28;21227;-69
2022/01/06 07:57:22;;;;;;;3.13;1.02;;;4.70;99.90;;;;;;5050419;28;20052;-69
2022/01/06 07:59:50;;;;;;;4.18;0.73;;;4.70;99.90;;;;;;5047735;28;20124;-69
2022/01/06 08:02:19;;;;;;;3.70;0.90;;;4.80;99.90;;;;;;5045770;28;20057;-70
2022/01/06 08:04:48;;;;;;;4.35;1.20;;;5.00;99.90;;;;;;5054040;28;20044;-69
2022/01/06 08:07:19;;;;;;;4.07;1.63;;;5.20;99.90;;;;;;5047118;28;20060;-70
2022/01/06 08:09:48;;;;;;;2.92;1.45;;;5.00;99.90;;;;;;5048339;28;20086;-68
2022/01/06 08:12:17;;;;;;;3.38;1.30;;;5.00;99.90;;;;;;5045230;28;20044;-70
2022/01/06 08:14:47;;;;;;;3.97;1.00;;;5.10;99.90;;;;;;5046631;28;20056;-70
2022/01/06 08:17:15;;;;;;;3.92;1.42;;;5.20;99.90;;;;;;5043344;28;20063;-70
2022/01/06 08:19:45;;;;;;;6.23;1.27;;;5.40;99.90;;;;;;5046199;28;20134;-70
2022/01/06 08:22:14;;;;;;;4.78;2.03;;;5.20;99.90;;;;;;5046930;28;20055;-74
2022/01/06 08:24:44;;;;;;;3.40;1.20;;;5.30;99.90;;;;;;5049474;28;20045;-71
2022/01/06 08:27:12;;;;;;;8.45;1.80;;;5.20;99.90;;;;;;5042187;28;20114;-70
2022/01/06 08:29:42;;;;;;;4.25;1.10;;;5.30;99.90;;;;;;5046553;28;20067;-70
2022/01/06 08:32:16;;;;;;;3.80;1.23;;;5.30;99.90;;;;;;5044354;28;20057;-70
2022/01/06 08:34:44;;;;;;;4.85;1.38;;;5.10;99.90;;;;;;5050248;28;20052;-71
2022/01/06 08:37:13;;;;;;;7.07;1.35;;;5.20;99.90;;;;;;5056474;28;20049;-74
2022/01/06 08:39:42;;;;;;;4.78;1.30;;;5.20;99.90;;;;;;5050342;28;20051;-71
2022/01/06 08:42:14;;;;;;;3.85;1.50;;;5.30;99.90;;;;;;5051560;28;20041;-71
2022/01/06 08:44:43;;;;;;;3.27;0.73;;;5.30;99.90;;;;;;5044690;28;20061;-73
2022/01/06 08:47:13;;;;;;;6.50;2.03;;;5.50;99.90;;;;;;5035517;28;20052;-73
2022/01/06 08:49:41;;;;;;;3.35;1.45;;;5.30;99.90;;;;;;5046573;28;20037;-73
2022/01/06 08:52:35;;;;;;;6.60;1.70;;;5.50;99.90;;;;;;5040006;28;20040;-70
2022/01/06 08:55:05;;;;;;;7.32;1.92;;;5.50;99.90;;;;;;5042635;28;20143;-71
2022/01/06 08:57:36;;;;;;;5.73;1.60;;;5.40;99.90;;;;;;5046799;28;20399;-71
2022/01/06 09:00:09;;;;;;;2.85;1.00;;;5.40;99.90;;;;;;5037519;28;20029;-77
2022/01/06 09:02:38;;;;;;;6.82;2.63;;;5.10;99.90;;;;;;5041935;28;20059;-75
2022/01/06 09:05:10;;;;;;;6.95;2.00;;;5.00;99.90;;;;;;5047783;28;20040;-72
2022/01/06 09:07:39;;;;;;;3.70;1.17;;;5.10;99.90;;;;;;5051281;28;20040;-76
2022/01/06 09:10:34;;;;;;;6.30;1.33;;;5.10;99.90;;;;;;5050717;28;20483;-74
2022/01/06 09:13:24;;;;;;;5.07;0.88;;;5.20;99.90;;;;;;5030292;28;20053;-75
2022/01/06 09:15:54;;;;;;;4.50;1.40;;;5.10;99.90;;;;;;5046911;28;20128;-72
2022/01/06 09:18:22;;;;;;;2.97;1.02;;;5.30;99.90;;;;;;5046057;28;20045;-74
2022/01/06 09:20:52;;;;;;;3.95;0.77;;;5.30;99.90;;;;;;5024965;28;20041;-74
2022/01/06 09:23:20;;;;;;;5.43;1.67;;;5.30;99.90;;;;;;5041358;28;20432;-75
2022/01/06 09:25:48;;;;;;;4.68;1.42;;;5.30;99.90;;;;;;5049724;28;20103;-72
2022/01/06 09:31:37;;;;;;;6.00;1.33;;;5.30;99.90;;;;;;5041715;28;20061;-72
2022/01/06 09:34:09;;;;;;;2.97;1.08;;;5.00;99.90;;;;;;5030476;28;20558;-71
2022/01/06 09:36:39;;;;;;;4.77;1.83;;;4.90;99.90;;;;;;5041649;28;20463;-71
2022/01/06 09:39:08;;;;;;;2.75;0.75;;;5.00;99.90;;;;;;5050491;28;20495;-71
2022/01/06 09:41:38;;;;;;;3.25;1.02;;;5.10;99.90;;;;;;5052187;28;20091;-71
2022/01/06 09:44:08;;;;;;;3.22;0.80;;;5.10;99.90;;;;;;5047616;28;20523;-71
2022/01/06 09:46:58;;;;;;;10.52;1.48;;;5.20;99.90;;;;;;5043044;28;20376;-71
2022/01/06 09:49:28;;;;;;;3.73;1.00;;;5.30;99.90;;;;;;5045287;28;20052;-71
2022/01/06 09:51:56;;;;;;;10.52;1.27;;;5.50;99.90;;;;;;5050721;28;20041;-71
2022/01/06 09:54:25;;;;;;;4.38;1.33;;;5.60;99.90;;;;;;5028528;28;20045;-71
2022/01/06 09:56:53;;;;;;;3.17;1.48;;;5.50;99.90;;;;;;5043509;28;20515;-71
2022/01/06 09:59:46;;;;;;;5.15;1.83;;;5.60;99.90;;;;;;5045085;28;20049;-72
2022/01/06 10:02:18;;;;;;;7.67;1.70;;;5.40;99.90;;;;;;5034872;28;20053;-71
2022/01/06 10:04:58;;;;;;;7.20;1.75;;;5.50;99.90;;;;;;5044459;28;20041;-73
2022/01/06 10:07:27;;;;;;;2.60;1.25;;;5.40;99.90;;;;;;5049613;28;20090;-69
2022/01/06 10:10:05;;;;;;;8.85;1.80;;;5.40;99.90;;;;;;5050905;28;20395;-70
2022/01/06 10:12:35;;;;;;;5.70;1.13;;;5.50;99.90;;;;;;5051425;28;20040;-79
2022/01/06 10:15:20;;;;;;;4.23;1.20;;;5.40;99.90;;;;;;5059860;28;20044;-81
2022/01/06 10:17:50;;;;;;;4.30;1.33;;;5.40;99.90;;;;;;5054978;28;20020;-71
2022/01/06 10:20:21;;;;;;;7.47;1.10;;;5.40;99.90;;;;;;5044342;28;20491;-74
2022/01/06 10:22:52;;;;;;;3.50;1.60;;;5.40;99.90;;;;;;5047707;28;20080;-71
2022/01/06 10:25:24;;;;;;;3.08;1.20;;;5.50;99.90;;;;;;5051700;28;20080;-73
2022/01/06 10:27:56;;;;;;;3.90;1.03;;;5.60;99.90;;;;;;5048005;28;20043;-72
2022/01/06 10:30:26;;;;;;;3.05;1.40;;;5.80;99.90;;;;;;5044843;28;20045;-72
2022/01/06 10:33:00;;;;;;;3.38;1.20;;;5.90;99.90;;;;;;5047619;28;20071;-71
2022/01/06 10:35:29;;;;;;;3.40;1.10;;;5.80;99.90;;;;;;5030841;28;20055;-71
2022/01/06 10:38:01;;;;;;;7.30;1.38;;;5.90;99.90;;;;;;5048941;28;20384;-71
2022/01/06 10:40:29;;;;;;;2.53;1.00;;;6.00;99.90;;;;;;5051022;28;20041;-71
2022/01/06 10:46:01;;;;;;;3.72;1.20;;;6.00;99.90;;;;;;5030037;28;20049;-76
2022/01/06 10:48:31;;;;;;;4.40;1.35;;;6.10;99.90;;;;;;5028156;28;20045;-73
2022/01/06 10:51:02;;;;;;;7.65;0.80;;;6.20;99.90;;;;;;5052406;28;20052;-70
2022/01/06 10:53:32;;;;;;;9.27;1.30;;;6.20;99.90;;;;;;5048414;28;20151;-69
2022/01/06 10:56:02;;;;;;;3.97;0.82;;;6.20;99.90;;;;;;5028477;28;20036;-71
2022/01/06 10:58:31;;;;;;;3.13;0.80;;;6.10;99.90;;;;;;5043154;28;20052;-81
2022/01/06 11:01:27;;;;;;;2.45;0.80;;;6.10;99.90;;;;;;5032569;28;20056;-73
2022/01/06 11:03:57;;;;;;;7.05;1.17;;;6.10;99.90;;;;;;5046858;28;20067;-73
2022/01/06 11:07:17;;;;;;;1.87;0.77;;;6.10;99.90;;;;;;5056534;28;20041;-74
2022/01/06 11:09:49;;;;;;;3.58;1.38;;;6.10;99.90;;;;;;5049507;28;20491;-73
2022/01/06 11:12:30;;;;;;;6.47;1.20;;;6.00;99.90;;;;;;5056516;28;20057;-74
2022/01/06 11:14:59;;;;;;;4.57;0.63;;;5.90;99.90;;;;;;5052790;28;20443;-73
2022/01/06 11:17:28;;;;;;;4.47;0.65;;;5.90;99.90;;;;;;5048514;28;20488;-73
2022/01/06 11:19:58;;;;;;;3.43;0.50;;;5.90;99.90;;;;;;5048328;28;20053;-74
2022/01/06 11:22:28;;;;;;;6.38;0.52;;;6.00;99.90;;;;;;5051626;28;20037;-74
2022/01/06 11:25:00;;;;;;;2.08;0.68;;;6.00;99.90;;;;;;5050798;28;20051;-74
2022/01/06 11:27:35;;;;;;;2.28;0.57;;;5.90;99.90;;;;;;5053645;28;20037;-74
2022/01/06 11:30:13;;;;;;;2.15;0.60;;;5.80;99.90;;;;;;5051481;28;20040;-75
2022/01/06 11:32:43;;;;;;;2.10;0.40;;;5.90;99.90;;;;;;5049319;28;20048;-74
2022/01/06 11:35:20;;;;;;;3.50;0.80;;;5.90;99.90;;;;;;5054357;28;20044;-74
2022/01/06 11:37:50;;;;;;;4.85;1.60;;;6.00;99.90;;;;;;5050045;28;20052;-74
2022/01/06 11:40:30;;;;;;;2.00;0.57;;;6.00;99.90;;;;;;5047807;28;20037;-74
2022/01/06 11:42:59;;;;;;;2.50;0.55;;;6.10;99.90;;;;;;5049435;28;20041;-74
2022/01/06 11:45:27;;;;;;;3.03;0.63;;;6.10;99.90;;;;;;5046252;28;20539;-74
2022/01/06 11:48:00;;;;;;;2.42;0.80;;;6.30;99.90;;;;;;5051871;28;20047;-74
2022/01/06 11:53:33;;;;;;;2.15;0.77;;;6.10;99.90;;;;;;5049651;28;20044;-74
2022/01/06 11:56:17;;;;;;;3.03;1.05;;;6.10;99.90;;;;;;5047043;28;20041;-74
2022/01/06 11:58:58;;;;;;;4.30;1.00;;;6.20;99.90;;;;;;5047445;28;20048;-74
2022/01/06 12:01:28;;;;;;;3.72;1.23;;;6.10;99.90;;;;;;5043205;28;20053;-74
2022/01/06 12:03:56;;;;;;;5.80;0.95;;;5.80;99.90;;;;;;5030063;28;20515;-74
2022/01/06 12:06:34;;;;;;;7.00;1.27;;;6.00;99.90;;;;;;5049163;28;20047;-74
2022/01/06 12:09:03;;;;;;;2.00;0.80;;;6.10;99.90;;;;;;5049458;28;20045;-74
2022/01/06 12:11:36;;;;;;;3.50;0.90;;;6.20;99.90;;;;;;5049707;28;20561;-74
2022/01/06 12:14:05;;;;;;;6.40;1.00;;;6.10;99.90;;;;;;5048416;28;20128;-74
2022/01/06 12:16:36;;;;;;;2.88;0.77;;;6.00;99.90;;;;;;5044084;28;20140;-74
2022/01/06 12:19:19;;;;;;;9.32;1.63;;;6.10;99.90;;;;;;5044784;28;20053;-74
2022/01/06 12:21:50;;;;;;;6.00;1.13;;;6.10;99.90;;;;;;5050501;28;20037;-74
2022/01/06 12:24:18;;;;;;;4.37;1.00;;;6.10;99.90;;;;;;5049590;28;20124;-74
2022/01/06 12:26:48;;;;;;;1.75;0.52;;;6.20;99.90;;;;;;5049118;28;20040;-74
2022/01/06 12:29:19;;;;;;;2.53;0.60;;;6.20;99.90;;;;;;5048695;28;20051;-74
2022/01/06 12:31:49;;;;;;;2.42;0.65;;;6.10;99.90;;;;;;5046288;28;20045;-74
2022/01/06 12:34:20;;;;;;;7.70;2.65;;;6.20;99.90;;;;;;5043605;28;20064;-73
2022/01/06 12:36:51;;;;;;;6.17;1.63;;;6.40;99.90;;;;;;5048441;28;20087;-74
2022/01/06 12:39:22;;;;;;;3.03;1.35;;;6.30;99.90;;;;;;5030758;28;20399;-74
2022/01/06 12:41:52;;;;;;;5.97;1.13;;;6.50;99.90;;;;;;5047352;28;20037;-74
2022/01/06 12:44:24;;;;;;;8.30;0.82;;;6.40;99.90;;;;;;5048900;28;20049;-74
2022/01/06 12:46:52;;;;;;;3.65;1.05;;;6.30;99.90;;;;;;5041797;28;20067;-74
2022/01/06 12:49:22;;;;;;;2.50;0.70;;;6.20;99.90;;;;;;5047136;28;20083;-74
2022/01/06 12:51:54;;;;;;;4.63;0.95;;;6.30;99.90;;;;;;5016858;28;20049;-74
2022/01/06 12:54:24;;;;;;;4.03;0.68;;;6.30;99.90;;;;;;5041730;28;20042;-74
2022/01/06 12:56:55;;;;;;;2.47;0.73;;;6.10;99.90;;;;;;5044697;28;20048;-74
2022/01/06 12:59:52;;;;;;;3.83;0.70;;;6.10;99.90;;;;;;5044172;28;20064;-74
2022/01/06 13:02:21;;;;;;;2.10;0.57;;;6.20;99.90;;;;;;5029149;28;20100;-74
2022/01/06 13:04:51;;;;;;;4.15;0.95;;;6.20;99.90;;;;;;5014831;28;20113;-74
2022/01/06 13:07:21;;;;;;;3.80;0.63;;;6.10;99.90;;;;;;5030500;28;20042;-74
2022/01/06 13:09:57;;;;;;;1.52;0.60;;;6.20;99.90;;;;;;5031914;28;20107;-74
2022/01/06 13:12:28;;;;;;;1.48;0.40;;;6.20;99.90;;;;;;5029017;28;20122;-74
2022/01/06 13:14:57;;;;;;;2.47;0.87;;;6.20;99.90;;;;;;5032455;28;20514;-74
2022/01/06 13:17:35;;;;;;;1.98;0.60;;;6.20;99.90;;;;;;5030310;28;20627;-75
2022/01/06 13:20:08;;;;;;;1.83;0.60;;;6.20;99.90;;;;;;5027697;28;20052;-74
2022/01/06 13:23:11;;;;;;;2.05;0.60;;;6.20;99.90;;;;;;5011915;28;20542;-74
2022/01/06 13:25:39;;;;;;;4.43;0.75;;;6.20;99.90;;;;;;5031464;28;20052;-74
2022/01/06 13:28:12;;;;;;;2.97;0.60;;;6.10;99.90;;;;;;5030012;28;20037;-74
2022/01/06 13:30:43;;;;;;;1.83;0.50;;;6.10;99.90;;;;;;5013591;28;20076;-74
2022/01/06 13:33:15;;;;;;;3.72;0.98;;;6.20;99.90;;;;;;5031376;28;20084;-74
2022/01/06 13:35:48;;;;;;;3.05;0.40;;;6.20;99.90;;;;;;5029781;28;20048;-74
2022/01/06 13:38:19;;;;;;;1.42;0.43;;;6.30;99.90;;;;;;5031459;28;20107;-74
2022/01/06 13:40:48;;;;;;;3.17;0.50;;;6.40;99.90;;;;;;5029769;28;20045;-75
2022/01/06 13:43:19;;;;;;;2.40;0.45;;;6.30;99.90;;;;;;5038057;28;20476;-74
2022/01/06 13:45:49;;;;;;;1.98;0.73;;;6.10;99.90;;;;;;5028834;28;20057;-75
2022/01/06 13:48:39;;;;;;;2.03;0.60;;;6.20;99.90;;;;;;5042716;28;20132;-74